Anguilla, MS

11:35 AM CST on November 23, 2014 (GMT -0600)
Vicksburg Tallulah Regional | Change Station
CLOSE
Current Station
Airport
Location: Vicksburg,
Elevation: 85 ft
Nearby Weather Stations

Elev 85 ft 32.35 °N, 91.03 °W | Updated 42 minutes ago

Overcast
Overcast
65 °F
Feels Like 65 °F
N
16
Wind Variable Wind from South
Gusts 26 mph

Today
High -- | Low -- °F
--% Chance of Precip.
Yesterday
High -- | Low -- °F
Precip. -- in
6:41 AM 4:58 PM
New Moon, 2% visible
Pressure 29.56 in
Visibility 10.0 miles
Clouds Scattered Clouds 1800 ft
Mostly Cloudy 2500 ft
Overcast 5000 ft
Dew Point 62 °F
Humidity 90%
Rainfall 0.22 in
Snow Depth Not available.
UV 1 out of 12
Pollen .10 out of 12
Air Quality Not available.
Flu Activity Not available.
METAR KTVR 231653Z AUTO 18014G23KT 10SM -RA SCT018 BKN025 OVC050 18/17 A2954 RMK AO2 PK WND 17028/1622 SLP008 P0000 T01830167

More Conditions Fewer Conditions

Pressure 29.56 in
Visibility 10.0 miles
Clouds Scattered Clouds 1800 ft
Mostly Cloudy 2500 ft
Overcast 5000 ft
Dew Point 62 °F
Humidity 90%
Rainfall 0.22 in
Snow Depth Not available.
UV 1 out of 12
Pollen .10 out of 12
Air Quality Not available.
Flu Activity Not available.
METAR KTVR 231653Z AUTO 18014G23KT 10SM -RA SCT018 BKN025 OVC050 18/17 A2954 RMK AO2 PK WND 17028/1622 SLP008 P0000 T01830167

More Conditions Fewer Conditions

10-Day Weather Forecast

Almanac

Astronomy

Nov. 23, 2014 Rise Set
Actual Time
Civil Twilight
Nautical Twilight
Astronomical Twilight
Moon
Length of Visible Light
Length of Day
Tomorrow will be .
, % of the Moon is Illuminated

Today's Extremes

State Highs State Lows

Community

WunderPhotos

Upload Photos

1,773,112 photos uploaded!

WunderBlogs® & News

Nearby

Air Quality

  Air Quality AQ Index Pollutant
Not available.

Snow Depth

Station Depth Elevation

Earthquake Activity

City Distance Mag. Time & Date
Minimum magnitude displayed is 2.5.

Coastal Water Temperatures

Place Temperature

Nearby Weather Stations